createdAt,value
2023-10-23T00:01:23.054Z,23.52
2023-10-23T00:03:50.330Z,25.63
2023-10-23T00:06:17.609Z,26.20
2023-10-23T00:08:44.620Z,19.83
2023-10-23T00:11:23.185Z,15.68
2023-10-23T00:13:50.180Z,13.07
2023-10-23T00:16:17.249Z,17.10
2023-10-23T00:18:44.204Z,13.52
2023-10-23T00:21:11.104Z,12.23
2023-10-23T00:23:38.043Z,12.95
2023-10-23T00:26:06.750Z,11.23
2023-10-23T00:28:34.383Z,13.80
2023-10-23T00:31:01.878Z,12.95
2023-10-23T00:33:29.404Z,15.63
2023-10-23T00:35:56.422Z,16.13
2023-10-23T00:38:23.668Z,14.18
2023-10-23T00:40:50.551Z,12.38
2023-10-23T00:43:22.507Z,12.43
2023-10-23T00:46:02.120Z,9.50
2023-10-23T00:48:29.556Z,9.57
2023-10-23T00:50:58.500Z,10.52
2023-10-23T00:53:27.593Z,9.52
2023-10-23T00:55:55.833Z,14.77
2023-10-23T00:58:28.184Z,12.50
2023-10-23T01:00:59.588Z,9.30
2023-10-23T01:03:27.341Z,9.63
2023-10-23T01:05:54.380Z,11.38
2023-10-23T01:08:21.769Z,14.02
2023-10-23T01:10:48.957Z,14.00
2023-10-23T01:13:16.131Z,11.48
2023-10-23T01:15:43.710Z,14.48
2023-10-23T01:18:11.919Z,14.15
2023-10-23T01:20:38.886Z,14.18
2023-10-23T01:23:05.977Z,11.23
2023-10-23T01:25:33.495Z,15.13
2023-10-23T01:28:00.475Z,18.52
2023-10-23T01:30:27.403Z,10.90
2023-10-23T01:32:54.396Z,12.77
2023-10-23T01:35:21.330Z,10.57
2023-10-23T01:37:48.832Z,13.32
2023-10-23T01:40:15.960Z,13.60
2023-10-23T01:42:43.914Z,12.63
2023-10-23T01:45:11.315Z,14.60
2023-10-23T01:47:38.912Z,15.45
2023-10-23T01:50:06.541Z,12.63
2023-10-23T01:52:33.581Z,12.82
2023-10-23T01:55:00.826Z,15.13
2023-10-23T01:57:28.903Z,15.55
2023-10-23T01:59:56.906Z,12.85
2023-10-23T02:02:23.912Z,18.52
2023-10-23T02:04:50.796Z,12.75
2023-10-23T02:07:17.742Z,11.25
2023-10-23T02:09:44.724Z,12.85
2023-10-23T02:12:11.732Z,12.10
2023-10-23T02:14:39.771Z,13.07
2023-10-23T02:17:06.901Z,20.45
2023-10-23T02:19:36.210Z,11.43
2023-10-23T02:22:03.309Z,17.00
2023-10-23T02:24:30.286Z,14.40
2023-10-23T02:26:57.639Z,16.10
2023-10-23T02:29:24.535Z,18.83
2023-10-23T02:31:51.606Z,16.85
2023-10-23T02:34:18.635Z,16.83
2023-10-23T02:36:45.628Z,19.10
2023-10-23T02:39:12.573Z,14.75
2023-10-23T02:41:39.741Z,19.52
2023-10-23T02:44:07.099Z,15.02
2023-10-23T02:46:39.463Z,18.30
2023-10-23T02:49:06.896Z,17.65
2023-10-23T02:51:33.874Z,19.70
2023-10-23T02:54:00.900Z,16.33
2023-10-23T02:56:27.800Z,19.20
2023-10-23T02:58:54.832Z,21.23
2023-10-23T03:01:24.908Z,21.45
2023-10-23T03:03:53.142Z,23.15
2023-10-23T03:06:20.312Z,23.55
2023-10-23T03:08:47.422Z,24.13
2023-10-23T03:11:14.322Z,19.98
2023-10-23T03:13:41.279Z,19.58
2023-10-23T03:16:08.541Z,18.70
2023-10-23T03:18:35.855Z,23.80
2023-10-23T03:21:03.541Z,21.83
2023-10-23T03:23:31.761Z,19.67
2023-10-23T03:25:59.247Z,23.38
2023-10-23T03:28:26.382Z,23.67
2023-10-23T03:30:53.532Z,16.35
2023-10-23T03:33:20.630Z,19.23
2023-10-23T03:35:47.894Z,23.48
2023-10-23T03:38:15.992Z,19.20
2023-10-23T03:40:53.215Z,21.38
2023-10-23T03:43:20.128Z,23.00
2023-10-23T03:45:47.061Z,24.88
2023-10-23T03:48:15.237Z,22.67
2023-10-23T03:50:42.155Z,21.05
2023-10-23T03:53:09.313Z,21.23
2023-10-23T03:55:39.506Z,27.10
2023-10-23T03:58:06.565Z,24.60
2023-10-23T04:00:33.718Z,24.85
2023-10-23T04:03:00.716Z,17.98
2023-10-23T04:05:27.618Z,23.27
2023-10-23T04:07:54.532Z,22.63
2023-10-23T04:10:21.506Z,23.58
2023-10-23T04:12:48.628Z,29.73
2023-10-23T04:15:15.541Z,23.80
2023-10-23T04:17:42.491Z,24.20
2023-10-23T04:20:09.556Z,21.60
2023-10-23T04:22:36.987Z,25.77
2023-10-23T04:25:04.228Z,20.65
2023-10-23T04:27:31.831Z,19.67
2023-10-23T04:30:00.986Z,21.30
2023-10-23T04:32:28.790Z,23.77
2023-10-23T04:34:55.746Z,25.38
2023-10-23T04:37:23.069Z,22.45
2023-10-23T04:39:50.028Z,20.90
2023-10-23T04:42:17.114Z,31.77
2023-10-23T04:44:44.022Z,22.63
2023-10-23T04:47:10.957Z,19.63
2023-10-23T04:49:37.977Z,21.92
2023-10-23T04:52:05.365Z,27.02
2023-10-23T04:54:32.419Z,19.58
2023-10-23T04:56:59.369Z,21.90
2023-10-23T04:59:26.250Z,21.92
2023-10-23T05:01:53.228Z,21.55
2023-10-23T05:04:20.321Z,23.10
2023-10-23T05:06:47.643Z,26.92
2023-10-23T05:09:14.499Z,24.15
2023-10-23T05:11:41.464Z,21.70
2023-10-23T05:14:08.358Z,19.83
2023-10-23T05:16:35.357Z,21.23
2023-10-23T05:19:02.422Z,22.02
2023-10-23T05:21:29.388Z,20.77
2023-10-23T05:23:56.251Z,25.52
2023-10-23T05:26:23.303Z,26.65
2023-10-23T05:28:52.678Z,30.25
2023-10-23T05:31:20.630Z,25.83
2023-10-23T05:33:47.600Z,20.13
2023-10-23T05:36:14.605Z,25.73
2023-10-23T05:38:41.474Z,27.85
2023-10-23T05:41:09.903Z,28.38
2023-10-23T05:43:37.446Z,27.25
2023-10-23T05:46:05.057Z,32.90
2023-10-23T05:48:32.453Z,29.23
2023-10-23T05:51:05.740Z,28.95
2023-10-23T05:53:33.365Z,23.27
2023-10-23T05:56:07.693Z,27.45
2023-10-23T05:58:35.594Z,27.87
2023-10-23T06:01:07.029Z,34.65
2023-10-23T06:03:35.141Z,24.58
2023-10-23T06:06:02.546Z,28.70
2023-10-23T06:08:29.450Z,26.45
2023-10-23T06:10:56.398Z,31.15
2023-10-23T06:13:23.412Z,25.70
2023-10-23T06:15:50.763Z,34.92
2023-10-23T06:18:17.810Z,32.45
2023-10-23T06:20:45.314Z,27.08
2023-10-23T06:23:12.389Z,28.55
2023-10-23T06:25:39.304Z,30.48
2023-10-23T06:28:06.388Z,25.88
2023-10-23T06:30:36.281Z,34.97
2023-10-23T06:33:04.008Z,32.65
2023-10-23T06:35:31.179Z,26.20
2023-10-23T06:37:58.174Z,23.80
2023-10-23T06:40:25.140Z,33.88
2023-10-23T06:42:52.033Z,28.08
2023-10-23T06:45:18.985Z,21.52
2023-10-23T06:47:51.441Z,24.85
2023-10-23T06:50:19.780Z,24.55
2023-10-23T06:52:46.835Z,27.38
2023-10-23T06:55:14.039Z,38.45
2023-10-23T06:57:40.999Z,24.00
2023-10-23T07:00:08.415Z,24.63
2023-10-23T07:02:35.408Z,26.90
2023-10-23T07:05:02.814Z,25.60
2023-10-23T07:07:32.624Z,33.63
2023-10-23T07:10:03.938Z,34.25
2023-10-23T07:12:30.772Z,30.33
2023-10-23T07:14:57.841Z,33.33
2023-10-23T07:17:25.081Z,33.08
2023-10-23T07:19:52.266Z,32.60
2023-10-23T07:22:19.184Z,34.63
2023-10-23T07:24:46.032Z,31.15
2023-10-23T07:27:16.362Z,30.13
2023-10-23T07:29:46.913Z,33.35
2023-10-23T07:32:13.818Z,29.35
2023-10-23T07:34:40.666Z,29.98
2023-10-23T07:37:07.627Z,25.73
2023-10-23T07:39:36.275Z,31.85
2023-10-23T07:42:04.181Z,26.08
2023-10-23T07:44:31.162Z,27.35
2023-10-23T07:46:58.251Z,39.55
2023-10-23T07:49:25.500Z,30.30
2023-10-23T07:51:54.180Z,31.95
2023-10-23T07:54:21.553Z,22.60
2023-10-23T07:56:48.677Z,30.50
2023-10-23T07:59:15.662Z,34.03
2023-10-23T08:01:42.726Z,32.85
2023-10-23T08:04:09.974Z,32.78
2023-10-23T08:06:37.212Z,30.23
2023-10-23T08:09:04.959Z,29.90
2023-10-23T08:11:31.996Z,36.30
2023-10-23T08:14:00.533Z,32.72
2023-10-23T08:16:27.697Z,36.97
2023-10-23T08:18:55.854Z,34.65
2023-10-23T08:21:24.280Z,32.45
2023-10-23T08:23:55.318Z,36.45
2023-10-23T08:26:22.652Z,35.85
2023-10-23T08:29:01.785Z,29.05
2023-10-23T08:31:38.546Z,35.22
2023-10-23T08:34:07.565Z,36.60
2023-10-23T08:36:35.216Z,34.33
2023-10-23T08:39:02.675Z,37.33
2023-10-23T08:41:30.676Z,34.67
2023-10-23T08:43:57.818Z,32.88
2023-10-23T08:46:33.833Z,32.53
2023-10-23T08:49:07.730Z,27.40
2023-10-23T08:51:36.647Z,31.67
2023-10-23T08:54:11.402Z,28.00
2023-10-23T08:56:41.997Z,28.90
2023-10-23T08:59:10.713Z,30.92
2023-10-23T09:01:38.941Z,33.33
2023-10-23T09:04:07.344Z,30.17
2023-10-23T09:06:36.824Z,23.38
2023-10-23T09:09:07.693Z,31.70
2023-10-23T09:11:49.188Z,23.65
2023-10-23T09:14:32.155Z,29.55
2023-10-23T09:17:05.100Z,24.67
2023-10-23T09:19:42.331Z,22.25
2023-10-23T09:22:09.817Z,17.90
2023-10-23T09:24:37.688Z,24.58
2023-10-23T09:27:04.880Z,32.88
2023-10-23T09:29:32.397Z,20.05
2023-10-23T09:32:00.164Z,20.45
2023-10-23T09:34:29.320Z,22.25
2023-10-23T09:36:57.070Z,24.65
2023-10-23T09:39:24.402Z,17.50
2023-10-23T09:41:52.013Z,13.95
2023-10-23T09:44:18.964Z,20.67
2023-10-23T09:46:49.251Z,20.40
2023-10-23T09:49:17.900Z,22.10
2023-10-23T09:51:49.951Z,19.05
2023-10-23T09:54:21.653Z,19.67
2023-10-23T09:56:55.611Z,15.98
2023-10-23T09:59:28.495Z,16.75
2023-10-23T10:02:00.505Z,16.40
2023-10-23T10:04:36.570Z,19.65
2023-10-23T10:07:12.437Z,13.30
2023-10-23T10:09:40.060Z,24.50
2023-10-23T10:12:08.264Z,17.05
2023-10-23T10:14:36.452Z,18.45
2023-10-23T10:17:05.736Z,20.23
2023-10-23T10:19:33.362Z,14.68
2023-10-23T10:22:14.845Z,20.65
2023-10-23T10:24:42.507Z,13.88
2023-10-23T10:27:10.446Z,13.88
2023-10-23T10:29:37.665Z,12.80
2023-10-23T10:32:13.779Z,22.23
2023-10-23T10:34:47.262Z,18.33
2023-10-23T10:39:48.469Z,22.05
2023-10-23T10:42:20.104Z,19.00
2023-10-23T10:44:58.451Z,21.83
2023-10-23T10:47:40.299Z,18.00
2023-10-23T10:50:07.874Z,20.50
2023-10-23T10:52:36.751Z,22.20
2023-10-23T10:55:10.765Z,16.23
2023-10-23T10:57:43.803Z,19.85
2023-10-23T11:00:12.783Z,21.08
2023-10-23T11:02:40.927Z,19.65
2023-10-23T11:05:12.944Z,20.35
2023-10-23T11:07:40.006Z,19.75
2023-10-23T11:10:07.880Z,20.00
2023-10-23T11:12:35.077Z,17.83
2023-10-23T11:15:02.044Z,15.43
2023-10-23T11:17:30.309Z,16.17
2023-10-23T11:19:57.772Z,17.25
2023-10-23T11:22:25.388Z,12.07
2023-10-23T11:24:52.564Z,15.18
2023-10-23T11:27:19.558Z,12.35
2023-10-23T11:29:49.880Z,17.35
2023-10-23T11:32:17.856Z,11.90
2023-10-23T11:34:49.003Z,13.95
2023-10-23T11:37:16.089Z,14.57
2023-10-23T11:39:43.681Z,13.43
2023-10-23T11:42:11.718Z,18.88
2023-10-23T11:44:38.813Z,13.27
2023-10-23T11:47:06.121Z,12.48
2023-10-23T11:49:33.548Z,14.40
2023-10-23T11:52:01.815Z,15.52
2023-10-23T11:54:29.586Z,14.38
2023-10-23T11:57:00.488Z,18.90
2023-10-23T11:59:28.194Z,14.27
2023-10-23T12:01:59.483Z,14.98
2023-10-23T12:04:26.860Z,15.40
2023-10-23T12:06:53.791Z,18.05
2023-10-23T12:09:20.804Z,13.77
2023-10-23T12:11:47.736Z,16.80
2023-10-23T12:14:14.663Z,17.92
2023-10-23T12:16:41.618Z,20.58
2023-10-23T12:19:11.146Z,14.90
2023-10-23T12:21:38.549Z,16.85
2023-10-23T12:24:07.720Z,13.70
2023-10-23T12:26:35.453Z,14.27
2023-10-23T12:29:06.206Z,13.50
2023-10-23T12:31:33.434Z,14.40
2023-10-23T12:34:20.425Z,12.60
2023-10-23T12:36:47.763Z,10.80
2023-10-23T12:39:14.748Z,15.07
2023-10-23T12:41:41.704Z,15.13
2023-10-23T12:44:08.680Z,15.65
2023-10-23T12:46:35.656Z,19.60
2023-10-23T12:49:03.177Z,10.25
2023-10-23T12:51:30.167Z,13.00
2023-10-23T12:53:57.084Z,12.15
2023-10-23T12:56:23.961Z,17.55
2023-10-23T12:58:50.877Z,14.30
2023-10-23T13:01:18.220Z,17.95
2023-10-23T13:03:45.200Z,10.40
2023-10-23T13:06:12.296Z,13.60
2023-10-23T13:08:40.647Z,13.90
2023-10-23T13:11:07.691Z,14.70
2023-10-23T13:13:35.012Z,13.27
2023-10-23T13:16:02.237Z,15.18
2023-10-23T13:18:30.549Z,11.85
2023-10-23T13:21:32.975Z,13.43
2023-10-23T13:23:46.938Z,17.35
2023-10-23T13:26:14.570Z,18.80
2023-10-23T13:28:41.684Z,16.27
2023-10-23T13:31:08.967Z,14.27
2023-10-23T13:33:36.311Z,13.60
2023-10-23T13:36:03.372Z,12.75
2023-10-23T13:38:31.274Z,10.48
2023-10-23T13:40:58.288Z,13.57
2023-10-23T13:43:26.457Z,16.90
2023-10-23T13:45:53.827Z,17.23
2023-10-23T13:48:20.953Z,11.75
2023-10-23T13:50:50.463Z,11.15
2023-10-23T13:53:18.878Z,16.67
2023-10-23T13:55:46.408Z,13.73
2023-10-23T13:58:13.690Z,16.65
2023-10-23T14:00:41.199Z,15.15
2023-10-23T14:03:08.951Z,17.20
2023-10-23T14:05:36.141Z,16.45
2023-10-23T14:08:03.208Z,20.20
2023-10-23T14:10:30.268Z,18.92
2023-10-23T14:12:57.888Z,19.60
2023-10-23T14:15:25.035Z,16.42
2023-10-23T14:17:52.112Z,16.88
2023-10-23T14:20:19.236Z,11.98
2023-10-23T14:22:46.874Z,15.50
2023-10-23T14:25:14.074Z,10.60
2023-10-23T14:27:42.306Z,13.43
2023-10-23T14:30:09.824Z,19.92
2023-10-23T14:32:37.720Z,12.15
2023-10-23T14:35:05.031Z,23.13
2023-10-23T14:37:32.228Z,15.07
2023-10-23T14:39:59.685Z,13.05
2023-10-23T14:42:26.936Z,17.33
2023-10-23T14:44:53.948Z,12.25
2023-10-23T14:47:22.279Z,13.55
2023-10-23T14:49:49.254Z,10.68
2023-10-23T14:52:16.323Z,13.30
2023-10-23T14:54:43.219Z,25.10
2023-10-23T14:57:10.226Z,16.33
2023-10-23T14:59:37.168Z,41.50
2023-10-23T15:02:04.442Z,32.08
2023-10-23T15:04:33.924Z,23.67
2023-10-23T15:07:02.527Z,17.63
2023-10-23T15:09:29.814Z,24.63
2023-10-23T15:11:56.786Z,25.70
2023-10-23T15:14:23.701Z,22.55
2023-10-23T15:16:50.864Z,21.75
2023-10-23T15:19:17.909Z,21.02
2023-10-23T15:21:44.928Z,13.85
2023-10-23T15:24:12.100Z,19.67
2023-10-23T15:26:39.324Z,13.43
2023-10-23T15:29:06.781Z,18.00
2023-10-23T15:31:33.835Z,21.38
2023-10-23T15:34:00.730Z,15.52
2023-10-23T15:36:28.435Z,17.30
2023-10-23T15:38:55.597Z,11.70
2023-10-23T15:41:22.661Z,15.48
2023-10-23T15:43:56.750Z,16.20
2023-10-23T15:46:23.816Z,15.73
2023-10-23T15:48:51.526Z,14.75
2023-10-23T15:51:18.447Z,25.45
2023-10-23T15:53:45.290Z,17.48
2023-10-23T15:56:12.289Z,16.70
2023-10-23T15:58:39.297Z,18.50
2023-10-23T16:01:06.597Z,24.75
2023-10-23T16:03:35.517Z,25.23
2023-10-23T16:06:05.079Z,20.60
2023-10-23T16:08:32.128Z,21.20
2023-10-23T16:11:00.737Z,25.45
2023-10-23T16:13:31.522Z,19.65
2023-10-23T16:15:59.165Z,30.30
2023-10-23T16:18:26.679Z,23.23
2023-10-23T16:20:53.704Z,24.52
2023-10-23T16:23:20.532Z,26.80
2023-10-23T16:25:47.583Z,23.48
2023-10-23T16:28:14.499Z,24.83
2023-10-23T16:30:42.314Z,23.98
2023-10-23T16:33:10.086Z,24.63
2023-10-23T16:35:37.832Z,28.40
2023-10-23T16:38:05.096Z,37.92
2023-10-23T16:40:34.941Z,23.83
2023-10-23T16:43:02.490Z,28.98
2023-10-23T16:45:29.995Z,27.50
2023-10-23T16:47:57.428Z,28.35
2023-10-23T16:50:25.414Z,24.20
2023-10-23T16:52:52.551Z,29.25
2023-10-23T16:55:19.892Z,28.05
2023-10-23T16:57:47.037Z,32.88
2023-10-23T17:00:16.474Z,26.05
2023-10-23T17:02:44.534Z,26.23
2023-10-23T17:05:13.603Z,31.75
2023-10-23T17:07:40.926Z,28.42
2023-10-23T17:10:08.594Z,30.60
2023-10-23T17:12:35.728Z,24.13
2023-10-23T17:15:04.162Z,31.42
2023-10-23T17:17:31.449Z,23.85
2023-10-23T17:19:59.104Z,28.77
2023-10-23T17:22:26.099Z,28.52
2023-10-23T17:24:53.076Z,46.22
2023-10-23T17:27:20.617Z,38.05
2023-10-23T17:29:47.584Z,35.45
2023-10-23T17:32:14.510Z,29.02
2023-10-23T17:34:41.593Z,39.40
2023-10-23T17:37:08.709Z,38.42
2023-10-23T17:39:35.787Z,35.47
2023-10-23T17:42:03.595Z,28.25
2023-10-23T17:44:31.420Z,31.42
2023-10-23T17:46:58.496Z,36.53
2023-10-23T17:49:25.644Z,32.00
2023-10-23T17:51:52.678Z,30.30
2023-10-23T17:54:19.595Z,34.67
2023-10-23T17:56:46.465Z,33.58
2023-10-23T17:59:13.371Z,33.08
2023-10-23T18:01:43.433Z,35.63
2023-10-23T18:04:12.392Z,33.80
2023-10-23T18:06:39.992Z,36.35
2023-10-23T18:09:07.773Z,40.30
2023-10-23T18:11:35.084Z,37.63
2023-10-23T18:14:02.334Z,40.28
2023-10-23T18:16:29.801Z,33.95
2023-10-23T18:18:57.140Z,40.83
2023-10-23T18:21:24.362Z,40.58
2023-10-23T18:23:52.425Z,41.35
2023-10-23T18:26:19.599Z,42.80
2023-10-23T18:28:46.937Z,46.50
2023-10-23T18:31:14.984Z,40.67
2023-10-23T18:33:42.236Z,41.88
2023-10-23T18:36:19.328Z,49.35
2023-10-23T18:38:47.600Z,43.13
2023-10-23T18:41:18.923Z,44.08
2023-10-23T18:43:46.508Z,44.28
2023-10-23T18:46:14.561Z,45.10
2023-10-23T18:48:42.414Z,47.60
2023-10-23T18:51:12.633Z,47.58
2023-10-23T18:53:41.504Z,50.67
2023-10-23T18:56:08.555Z,52.80
2023-10-23T18:58:35.723Z,44.85
2023-10-23T19:01:09.534Z,44.53
2023-10-23T19:03:37.284Z,53.90
2023-10-23T19:06:04.287Z,48.60
2023-10-23T19:08:33.840Z,49.28
2023-10-23T19:11:00.732Z,49.90
2023-10-23T19:13:27.773Z,53.38
2023-10-23T19:15:59.212Z,53.50
2023-10-23T19:18:30.210Z,52.47
2023-10-23T19:21:02.820Z,56.92
2023-10-23T19:23:30.193Z,50.63
2023-10-23T19:25:57.226Z,54.75
2023-10-23T19:28:24.365Z,44.47
2023-10-23T19:30:51.709Z,47.30
2023-10-23T19:33:19.047Z,44.55
2023-10-23T19:35:46.367Z,52.40
2023-10-23T19:38:13.650Z,47.50
2023-10-23T19:40:49.316Z,45.53
2023-10-23T19:43:17.651Z,49.22
2023-10-23T19:45:45.314Z,52.85
2023-10-23T19:48:13.480Z,45.70
2023-10-23T19:50:50.799Z,55.50
2023-10-23T19:53:18.675Z,52.47
2023-10-23T19:55:47.312Z,44.03
2023-10-23T19:58:16.919Z,44.38
2023-10-23T20:00:44.031Z,41.15
2023-10-23T20:03:11.480Z,47.50
2023-10-23T20:05:38.403Z,44.45
2023-10-23T20:08:05.780Z,47.35
2023-10-23T20:10:33.411Z,41.63
2023-10-23T20:13:01.719Z,44.88
2023-10-23T20:15:30.444Z,40.42
2023-10-23T20:17:57.581Z,40.42
2023-10-23T20:20:24.789Z,40.35
2023-10-23T20:22:51.756Z,43.70
2023-10-23T20:25:19.278Z,45.40
2023-10-23T20:27:46.283Z,41.03
2023-10-23T20:30:13.662Z,39.88
2023-10-23T20:32:40.840Z,31.40
2023-10-23T20:35:08.432Z,38.50
2023-10-23T20:37:35.776Z,35.13
2023-10-23T20:40:04.786Z,34.30
2023-10-23T20:42:37.220Z,35.28
2023-10-23T20:45:06.405Z,34.25
2023-10-23T20:47:34.547Z,29.98
2023-10-23T20:50:05.931Z,34.30
2023-10-23T20:52:33.416Z,30.20
2023-10-23T20:55:01.304Z,29.23
2023-10-23T20:57:28.522Z,26.40
2023-10-23T20:59:55.370Z,24.27
2023-10-23T21:02:22.397Z,22.50
2023-10-23T21:04:49.334Z,21.15
2023-10-23T21:07:16.323Z,20.73
2023-10-23T21:09:43.787Z,19.27
2023-10-23T21:12:10.863Z,20.58
2023-10-23T21:14:49.203Z,17.98
2023-10-23T21:17:17.938Z,17.70
2023-10-23T21:19:45.107Z,21.67
2023-10-23T21:22:12.188Z,26.08
2023-10-23T21:24:39.409Z,23.63
2023-10-23T21:27:06.377Z,21.88
2023-10-23T21:29:33.288Z,21.08
2023-10-23T21:32:02.934Z,24.27
2023-10-23T21:34:30.297Z,22.27
2023-10-23T21:36:57.677Z,27.33
2023-10-23T21:39:24.574Z,20.75
2023-10-23T21:41:51.837Z,24.42
2023-10-23T21:44:19.184Z,25.20
2023-10-23T21:46:46.303Z,28.77
2023-10-23T21:49:13.242Z,25.20
2023-10-23T21:51:41.259Z,27.75
2023-10-23T21:54:08.681Z,25.33
2023-10-23T21:57:19.496Z,34.08
2023-10-23T21:59:23.283Z,34.55
2023-10-23T22:01:53.610Z,29.40
2023-10-23T22:04:21.535Z,31.95
2023-10-23T22:06:48.910Z,33.92
2023-10-23T22:09:16.668Z,32.80
2023-10-23T22:11:44.466Z,34.60
2023-10-23T22:14:12.188Z,31.83
2023-10-23T22:16:39.304Z,32.47
2023-10-23T22:19:06.534Z,33.63
2023-10-23T22:21:33.741Z,35.15
2023-10-23T22:24:00.686Z,32.85
2023-10-23T22:26:27.659Z,34.42
2023-10-23T22:28:54.633Z,37.20
2023-10-23T22:31:21.630Z,33.85
2023-10-23T22:33:48.874Z,37.78
2023-10-23T22:36:16.057Z,33.95
2023-10-23T22:38:43.162Z,36.40
2023-10-23T22:41:10.193Z,39.97
2023-10-23T22:43:37.169Z,37.60
2023-10-23T22:46:04.378Z,37.45
2023-10-23T22:48:32.155Z,39.72
2023-10-23T22:50:59.580Z,38.30
2023-10-23T22:53:26.784Z,39.53
2023-10-23T22:55:55.676Z,43.22
2023-10-23T22:58:31.109Z,41.40
2023-10-23T23:03:26.374Z,44.00
2023-10-23T23:05:55.071Z,45.53
2023-10-23T23:08:22.672Z,42.00
2023-10-23T23:10:51.581Z,43.33
2023-10-23T23:13:18.729Z,42.10
2023-10-23T23:15:48.163Z,45.05
2023-10-23T23:18:19.971Z,41.40
2023-10-23T23:20:50.778Z,42.70
2023-10-23T23:23:17.828Z,44.70
2023-10-23T23:25:45.090Z,46.25
2023-10-23T23:28:12.081Z,48.75
2023-10-23T23:30:38.979Z,45.42
2023-10-23T23:33:06.108Z,43.75
2023-10-23T23:35:33.200Z,46.22
2023-10-23T23:38:00.703Z,47.63
2023-10-23T23:40:27.714Z,47.42
2023-10-23T23:42:55.127Z,48.35
2023-10-23T23:45:22.117Z,46.08
2023-10-23T23:47:49.121Z,46.33
2023-10-23T23:50:16.060Z,51.70
2023-10-23T23:52:43.043Z,54.13
2023-10-23T23:55:10.020Z,51.63
2023-10-23T23:57:37.002Z,48.40
